sensor_id;sensor_type;location;lat;lon;timestamp;P1;durP1;ratioP1;P2;durP2;ratioP2
74789;SDS011;63318;52.406;13.416;2022-10-15T00:01:05;22.60;;;12.10;;
74789;SDS011;63318;52.406;13.416;2022-10-15T00:03:36;17.80;;;11.90;;
74789;SDS011;63318;52.406;13.416;2022-10-15T00:06:05;19.70;;;11.30;;
74789;SDS011;63318;52.406;13.416;2022-10-15T00:08:35;18.90;;;11.20;;
74789;SDS011;63318;52.406;13.416;2022-10-15T00:11:05;15.80;;;10.90;;
74789;SDS011;63318;52.406;13.416;2022-10-15T00:13:35;19.50;;;12.20;;
74789;SDS011;63318;52.406;13.416;2022-10-15T00:16:05;16.60;;;10.70;;
74789;SDS011;63318;52.406;13.416;2022-10-15T00:18:34;18.60;;;11.00;;
74789;SDS011;63318;52.406;13.416;2022-10-15T00:21:05;15.20;;;10.60;;
74789;SDS011;63318;52.406;13.416;2022-10-15T00:23:35;19.80;;;12.30;;
74789;SDS011;63318;52.406;13.416;2022-10-15T00:26:05;15.50;;;10.70;;
74789;SDS011;63318;52.406;13.416;2022-10-15T00:28:35;16.30;;;11.40;;
74789;SDS011;63318;52.406;13.416;2022-10-15T00:31:04;17.60;;;11.20;;
74789;SDS011;63318;52.406;13.416;2022-10-15T00:33:34;16.10;;;10.70;;
74789;SDS011;63318;52.406;13.416;2022-10-15T00:36:04;16.20;;;11.70;;
74789;SDS011;63318;52.406;13.416;2022-10-15T00:38:34;19.50;;;12.20;;
74789;SDS011;63318;52.406;13.416;2022-10-15T00:41:02;17.90;;;12.20;;
74789;SDS011;63318;52.406;13.416;2022-10-15T00:43:36;21.80;;;13.30;;
74789;SDS011;63318;52.406;13.416;2022-10-15T00:46:14;17.50;;;11.50;;
74789;SDS011;63318;52.406;13.416;2022-10-15T00:48:47;18.00;;;10.70;;
74789;SDS011;63318;52.406;13.416;2022-10-15T00:51:18;15.10;;;11.00;;
74789;SDS011;63318;52.406;13.416;2022-10-15T00:53:49;18.80;;;10.80;;
74789;SDS011;63318;52.406;13.416;2022-10-15T00:56:18;15.10;;;9.80;;
74789;SDS011;63318;52.406;13.416;2022-10-15T00:58:49;16.20;;;10.90;;
74789;SDS011;63318;52.406;13.416;2022-10-15T01:01:20;18.00;;;10.70;;
74789;SDS011;63318;52.406;13.416;2022-10-15T01:03:48;16.60;;;10.40;;
74789;SDS011;63318;52.406;13.416;2022-10-15T01:06:17;17.30;;;10.20;;
74789;SDS011;63318;52.406;13.416;2022-10-15T01:08:45;16.50;;;11.00;;
74789;SDS011;63318;52.406;13.416;2022-10-15T01:11:24;17.60;;;11.00;;
74789;SDS011;63318;52.406;13.416;2022-10-15T01:14:03;16.80;;;10.90;;
74789;SDS011;63318;52.406;13.416;2022-10-15T01:16:41;20.10;;;11.40;;
74789;SDS011;63318;52.406;13.416;2022-10-15T01:19:17;17.70;;;10.90;;
74789;SDS011;63318;52.406;13.416;2022-10-15T01:22:05;16.70;;;11.00;;
74789;SDS011;63318;52.406;13.416;2022-10-15T01:24:47;19.10;;;11.50;;
74789;SDS011;63318;52.406;13.416;2022-10-15T01:27:30;16.60;;;9.70;;
74789;SDS011;63318;52.406;13.416;2022-10-15T01:33:09;16.40;;;9.90;;
74789;SDS011;63318;52.406;13.416;2022-10-15T01:35:49;17.00;;;10.30;;
74789;SDS011;63318;52.406;13.416;2022-10-15T01:38:24;15.00;;;9.40;;
74789;SDS011;63318;52.406;13.416;2022-10-15T01:41:02;18.40;;;10.70;;
74789;SDS011;63318;52.406;13.416;2022-10-15T01:43:36;16.30;;;10.20;;
74789;SDS011;63318;52.406;13.416;2022-10-15T01:46:10;15.80;;;10.90;;
74789;SDS011;63318;52.406;13.416;2022-10-15T01:48:43;17.00;;;11.30;;
74789;SDS011;63318;52.406;13.416;2022-10-15T01:51:11;14.30;;;9.30;;
74789;SDS011;63318;52.406;13.416;2022-10-15T01:53:42;15.00;;;9.50;;
74789;SDS011;63318;52.406;13.416;2022-10-15T01:56:14;15.30;;;10.00;;
74789;SDS011;63318;52.406;13.416;2022-10-15T01:58:45;15.20;;;10.70;;
74789;SDS011;63318;52.406;13.416;2022-10-15T02:03:45;15.30;;;10.10;;
74789;SDS011;63318;52.406;13.416;2022-10-15T02:06:17;17.60;;;10.00;;
74789;SDS011;63318;52.406;13.416;2022-10-15T02:08:56;19.30;;;11.20;;
74789;SDS011;63318;52.406;13.416;2022-10-15T02:11:33;15.10;;;10.20;;
74789;SDS011;63318;52.406;13.416;2022-10-15T02:14:13;18.00;;;10.50;;
74789;SDS011;63318;52.406;13.416;2022-10-15T02:16:46;16.00;;;10.70;;
74789;SDS011;63318;52.406;13.416;2022-10-15T02:19:23;13.50;;;9.60;;
74789;SDS011;63318;52.406;13.416;2022-10-15T02:21:58;15.90;;;9.30;;
74789;SDS011;63318;52.406;13.416;2022-10-15T02:24:33;13.20;;;8.60;;
74789;SDS011;63318;52.406;13.416;2022-10-15T02:27:05;16.00;;;10.60;;
74789;SDS011;63318;52.406;13.416;2022-10-15T02:29:35;13.70;;;9.10;;
74789;SDS011;63318;52.406;13.416;2022-10-15T02:32:06;14.70;;;9.80;;
74789;SDS011;63318;52.406;13.416;2022-10-15T02:34:36;14.20;;;9.40;;
74789;SDS011;63318;52.406;13.416;2022-10-15T02:37:06;14.50;;;9.40;;
74789;SDS011;63318;52.406;13.416;2022-10-15T02:39:35;16.10;;;10.00;;
74789;SDS011;63318;52.406;13.416;2022-10-15T02:42:04;17.50;;;10.90;;
74789;SDS011;63318;52.406;13.416;2022-10-15T02:44:32;15.60;;;10.20;;
74789;SDS011;63318;52.406;13.416;2022-10-15T02:47:00;14.20;;;10.20;;
74789;SDS011;63318;52.406;13.416;2022-10-15T02:49:29;17.90;;;11.50;;
74789;SDS011;63318;52.406;13.416;2022-10-15T02:51:57;17.10;;;10.60;;
74789;SDS011;63318;52.406;13.416;2022-10-15T02:54:26;15.60;;;9.40;;
74789;SDS011;63318;52.406;13.416;2022-10-15T02:56:54;15.60;;;9.80;;
74789;SDS011;63318;52.406;13.416;2022-10-15T02:59:22;16.10;;;9.20;;
74789;SDS011;63318;52.406;13.416;2022-10-15T03:01:50;16.20;;;11.10;;
74789;SDS011;63318;52.406;13.416;2022-10-15T03:04:18;14.20;;;9.10;;
74789;SDS011;63318;52.406;13.416;2022-10-15T03:06:47;13.90;;;8.50;;
74789;SDS011;63318;52.406;13.416;2022-10-15T03:09:15;16.50;;;10.40;;
74789;SDS011;63318;52.406;13.416;2022-10-15T03:11:43;18.30;;;10.00;;
74789;SDS011;63318;52.406;13.416;2022-10-15T03:14:11;16.00;;;10.50;;
74789;SDS011;63318;52.406;13.416;2022-10-15T03:16:40;17.00;;;10.10;;
74789;SDS011;63318;52.406;13.416;2022-10-15T03:19:08;17.50;;;10.80;;
74789;SDS011;63318;52.406;13.416;2022-10-15T03:21:36;15.30;;;10.50;;
74789;SDS011;63318;52.406;13.416;2022-10-15T03:24:05;17.70;;;10.70;;
74789;SDS011;63318;52.406;13.416;2022-10-15T03:26:33;18.20;;;11.60;;
74789;SDS011;63318;52.406;13.416;2022-10-15T03:29:01;15.10;;;9.30;;
74789;SDS011;63318;52.406;13.416;2022-10-15T03:31:30;13.40;;;9.00;;
74789;SDS011;63318;52.406;13.416;2022-10-15T03:33:58;17.40;;;10.40;;
74789;SDS011;63318;52.406;13.416;2022-10-15T03:36:26;16.00;;;9.00;;
74789;SDS011;63318;52.406;13.416;2022-10-15T03:38:54;16.20;;;9.60;;
74789;SDS011;63318;52.406;13.416;2022-10-15T03:41:22;15.30;;;9.50;;
74789;SDS011;63318;52.406;13.416;2022-10-15T03:43:51;14.90;;;9.00;;
74789;SDS011;63318;52.406;13.416;2022-10-15T03:46:19;15.20;;;9.00;;
74789;SDS011;63318;52.406;13.416;2022-10-15T03:48:48;13.90;;;9.50;;
74789;SDS011;63318;52.406;13.416;2022-10-15T03:51:16;15.20;;;9.80;;
74789;SDS011;63318;52.406;13.416;2022-10-15T03:53:45;14.70;;;9.80;;
74789;SDS011;63318;52.406;13.416;2022-10-15T03:56:13;14.80;;;9.60;;
74789;SDS011;63318;52.406;13.416;2022-10-15T03:58:41;14.00;;;10.20;;
74789;SDS011;63318;52.406;13.416;2022-10-15T04:01:10;13.90;;;9.00;;
74789;SDS011;63318;52.406;13.416;2022-10-15T04:03:40;15.30;;;9.70;;
74789;SDS011;63318;52.406;13.416;2022-10-15T04:06:09;15.20;;;10.10;;
74789;SDS011;63318;52.406;13.416;2022-10-15T04:08:37;15.20;;;9.90;;
74789;SDS011;63318;52.406;13.416;2022-10-15T04:11:05;17.60;;;9.30;;
74789;SDS011;63318;52.406;13.416;2022-10-15T04:13:33;15.00;;;9.70;;
74789;SDS011;63318;52.406;13.416;2022-10-15T04:16:04;13.60;;;9.50;;
74789;SDS011;63318;52.406;13.416;2022-10-15T04:18:32;13.80;;;8.70;;
74789;SDS011;63318;52.406;13.416;2022-10-15T04:21:00;14.40;;;9.70;;
74789;SDS011;63318;52.406;13.416;2022-10-15T04:23:29;16.00;;;9.40;;
74789;SDS011;63318;52.406;13.416;2022-10-15T04:25:58;15.00;;;10.00;;
74789;SDS011;63318;52.406;13.416;2022-10-15T04:28:27;13.40;;;8.80;;
74789;SDS011;63318;52.406;13.416;2022-10-15T04:30:56;14.10;;;9.00;;
74789;SDS011;63318;52.406;13.416;2022-10-15T04:33:24;13.90;;;9.00;;
74789;SDS011;63318;52.406;13.416;2022-10-15T04:35:58;15.30;;;9.30;;
74789;SDS011;63318;52.406;13.416;2022-10-15T04:38:27;12.30;;;8.40;;
74789;SDS011;63318;52.406;13.416;2022-10-15T04:40:59;15.50;;;10.20;;
74789;SDS011;63318;52.406;13.416;2022-10-15T04:43:29;13.50;;;8.20;;
74789;SDS011;63318;52.406;13.416;2022-10-15T04:45:59;13.40;;;8.40;;
74789;SDS011;63318;52.406;13.416;2022-10-15T04:48:29;16.00;;;8.70;;
74789;SDS011;63318;52.406;13.416;2022-10-15T04:51:02;13.00;;;8.40;;
74789;SDS011;63318;52.406;13.416;2022-10-15T04:53:31;15.30;;;9.10;;
74789;SDS011;63318;52.406;13.416;2022-10-15T04:56:00;12.50;;;7.90;;
74789;SDS011;63318;52.406;13.416;2022-10-15T04:58:30;11.20;;;8.00;;
74789;SDS011;63318;52.406;13.416;2022-10-15T05:01:00;15.10;;;8.60;;
74789;SDS011;63318;52.406;13.416;2022-10-15T05:03:29;15.80;;;8.90;;
74789;SDS011;63318;52.406;13.416;2022-10-15T05:06:01;11.80;;;8.20;;
74789;SDS011;63318;52.406;13.416;2022-10-15T05:11:00;12.40;;;7.70;;
74789;SDS011;63318;52.406;13.416;2022-10-15T05:13:28;13.30;;;7.50;;
74789;SDS011;63318;52.406;13.416;2022-10-15T05:16:00;14.50;;;8.20;;
74789;SDS011;63318;52.406;13.416;2022-10-15T05:18:36;13.10;;;7.90;;
74789;SDS011;63318;52.406;13.416;2022-10-15T05:21:04;12.70;;;8.70;;
74789;SDS011;63318;52.406;13.416;2022-10-15T05:23:33;13.40;;;7.60;;
74789;SDS011;63318;52.406;13.416;2022-10-15T05:26:02;13.00;;;7.80;;
74789;SDS011;63318;52.406;13.416;2022-10-15T05:28:33;13.70;;;8.30;;
74789;SDS011;63318;52.406;13.416;2022-10-15T05:31:05;13.40;;;8.30;;
74789;SDS011;63318;52.406;13.416;2022-10-15T05:33:34;13.60;;;8.40;;
74789;SDS011;63318;52.406;13.416;2022-10-15T05:36:10;11.90;;;8.20;;
74789;SDS011;63318;52.406;13.416;2022-10-15T05:38:39;11.40;;;7.80;;
74789;SDS011;63318;52.406;13.416;2022-10-15T05:41:07;10.80;;;7.30;;
74789;SDS011;63318;52.406;13.416;2022-10-15T05:43:36;12.00;;;7.60;;
74789;SDS011;63318;52.406;13.416;2022-10-15T05:46:04;11.20;;;6.80;;
74789;SDS011;63318;52.406;13.416;2022-10-15T05:48:33;12.10;;;7.30;;
74789;SDS011;63318;52.406;13.416;2022-10-15T05:51:01;15.90;;;6.70;;
74789;SDS011;63318;52.406;13.416;2022-10-15T05:53:30;13.90;;;7.70;;
74789;SDS011;63318;52.406;13.416;2022-10-15T05:55:59;13.00;;;7.50;;
74789;SDS011;63318;52.406;13.416;2022-10-15T05:58:27;13.70;;;7.50;;
74789;SDS011;63318;52.406;13.416;2022-10-15T06:00:56;11.20;;;8.00;;
74789;SDS011;63318;52.406;13.416;2022-10-15T06:03:25;11.80;;;7.10;;
74789;SDS011;63318;52.406;13.416;2022-10-15T06:05:54;14.20;;;8.00;;
74789;SDS011;63318;52.406;13.416;2022-10-15T06:08:22;12.10;;;7.50;;
74789;SDS011;63318;52.406;13.416;2022-10-15T06:10:50;13.10;;;8.10;;
74789;SDS011;63318;52.406;13.416;2022-10-15T06:13:19;13.80;;;8.10;;
74789;SDS011;63318;52.406;13.416;2022-10-15T06:15:47;13.60;;;8.00;;
74789;SDS011;63318;52.406;13.416;2022-10-15T06:18:15;12.10;;;7.60;;
74789;SDS011;63318;52.406;13.416;2022-10-15T06:20:43;11.40;;;7.70;;
74789;SDS011;63318;52.406;13.416;2022-10-15T06:23:18;11.10;;;7.00;;
74789;SDS011;63318;52.406;13.416;2022-10-15T06:25:47;12.60;;;7.60;;
74789;SDS011;63318;52.406;13.416;2022-10-15T06:28:15;12.00;;;8.00;;
74789;SDS011;63318;52.406;13.416;2022-10-15T06:30:43;12.90;;;8.50;;
74789;SDS011;63318;52.406;13.416;2022-10-15T06:33:12;13.30;;;7.60;;
74789;SDS011;63318;52.406;13.416;2022-10-15T06:35:40;10.70;;;7.90;;
74789;SDS011;63318;52.406;13.416;2022-10-15T06:38:08;11.00;;;7.60;;
74789;SDS011;63318;52.406;13.416;2022-10-15T06:40:37;10.60;;;7.30;;
74789;SDS011;63318;52.406;13.416;2022-10-15T06:43:06;11.10;;;7.60;;
74789;SDS011;63318;52.406;13.416;2022-10-15T06:45:35;11.30;;;7.30;;
74789;SDS011;63318;52.406;13.416;2022-10-15T06:48:05;13.30;;;7.60;;
74789;SDS011;63318;52.406;13.416;2022-10-15T06:50:34;13.80;;;8.20;;
74789;SDS011;63318;52.406;13.416;2022-10-15T06:53:04;11.20;;;7.30;;
74789;SDS011;63318;52.406;13.416;2022-10-15T06:55:32;12.00;;;8.00;;
74789;SDS011;63318;52.406;13.416;2022-10-15T06:58:01;12.30;;;7.20;;
74789;SDS011;63318;52.406;13.416;2022-10-15T07:00:29;11.00;;;7.30;;
74789;SDS011;63318;52.406;13.416;2022-10-15T07:03:01;9.70;;;7.00;;
74789;SDS011;63318;52.406;13.416;2022-10-15T07:05:30;10.30;;;6.50;;
74789;SDS011;63318;52.406;13.416;2022-10-15T07:07:59;11.00;;;6.70;;
74789;SDS011;63318;52.406;13.416;2022-10-15T07:10:27;12.80;;;7.10;;
74789;SDS011;63318;52.406;13.416;2022-10-15T07:12:57;9.10;;;6.00;;
74789;SDS011;63318;52.406;13.416;2022-10-15T07:15:26;9.30;;;6.10;;
74789;SDS011;63318;52.406;13.416;2022-10-15T07:17:55;8.40;;;5.90;;
74789;SDS011;63318;52.406;13.416;2022-10-15T07:20:23;9.10;;;5.70;;
74789;SDS011;63318;52.406;13.416;2022-10-15T07:22:53;11.70;;;4.90;;
74789;SDS011;63318;52.406;13.416;2022-10-15T07:25:23;7.70;;;5.40;;
74789;SDS011;63318;52.406;13.416;2022-10-15T07:27:52;9.90;;;6.40;;
74789;SDS011;63318;52.406;13.416;2022-10-15T07:30:21;10.20;;;5.80;;
74789;SDS011;63318;52.406;13.416;2022-10-15T07:32:50;8.60;;;5.40;;
74789;SDS011;63318;52.406;13.416;2022-10-15T07:35:19;11.90;;;5.40;;
74789;SDS011;63318;52.406;13.416;2022-10-15T07:37:47;7.60;;;4.80;;
74789;SDS011;63318;52.406;13.416;2022-10-15T07:40:15;7.30;;;5.00;;
74789;SDS011;63318;52.406;13.416;2022-10-15T07:42:44;9.00;;;5.90;;
74789;SDS011;63318;52.406;13.416;2022-10-15T07:45:17;8.60;;;5.30;;
74789;SDS011;63318;52.406;13.416;2022-10-15T07:47:45;8.40;;;5.10;;
74789;SDS011;63318;52.406;13.416;2022-10-15T07:50:14;9.00;;;5.50;;
74789;SDS011;63318;52.406;13.416;2022-10-15T07:52:42;9.30;;;5.70;;
74789;SDS011;63318;52.406;13.416;2022-10-15T07:55:11;9.40;;;5.80;;
74789;SDS011;63318;52.406;13.416;2022-10-15T07:57:39;9.80;;;5.40;;
74789;SDS011;63318;52.406;13.416;2022-10-15T08:00:09;10.20;;;5.30;;
74789;SDS011;63318;52.406;13.416;2022-10-15T08:02:38;10.30;;;5.80;;
74789;SDS011;63318;52.406;13.416;2022-10-15T08:05:07;7.50;;;5.20;;
74789;SDS011;63318;52.406;13.416;2022-10-15T08:07:36;11.70;;;5.40;;
74789;SDS011;63318;52.406;13.416;2022-10-15T08:10:05;10.40;;;5.50;;
74789;SDS011;63318;52.406;13.416;2022-10-15T08:12:34;7.50;;;5.00;;
74789;SDS011;63318;52.406;13.416;2022-10-15T08:15:02;8.40;;;5.40;;
74789;SDS011;63318;52.406;13.416;2022-10-15T08:17:32;10.90;;;6.40;;
74789;SDS011;63318;52.406;13.416;2022-10-15T08:20:00;8.00;;;4.80;;
74789;SDS011;63318;52.406;13.416;2022-10-15T08:22:30;8.80;;;5.10;;
74789;SDS011;63318;52.406;13.416;2022-10-15T08:24:58;7.30;;;5.20;;
74789;SDS011;63318;52.406;13.416;2022-10-15T08:27:26;6.90;;;4.50;;
74789;SDS011;63318;52.406;13.416;2022-10-15T08:29:55;8.10;;;5.10;;
74789;SDS011;63318;52.406;13.416;2022-10-15T08:32:23;6.70;;;4.50;;
74789;SDS011;63318;52.406;13.416;2022-10-15T08:34:51;7.10;;;4.70;;
74789;SDS011;63318;52.406;13.416;2022-10-15T08:37:19;6.60;;;4.90;;
74789;SDS011;63318;52.406;13.416;2022-10-15T08:39:48;6.70;;;4.70;;
74789;SDS011;63318;52.406;13.416;2022-10-15T08:42:17;7.00;;;4.80;;
74789;SDS011;63318;52.406;13.416;2022-10-15T08:44:52;9.30;;;4.70;;
74789;SDS011;63318;52.406;13.416;2022-10-15T08:47:27;9.70;;;4.60;;
74789;SDS011;63318;52.406;13.416;2022-10-15T08:50:00;7.80;;;4.30;;
74789;SDS011;63318;52.406;13.416;2022-10-15T08:52:34;9.40;;;4.40;;
74789;SDS011;63318;52.406;13.416;2022-10-15T08:55:09;9.70;;;4.70;;
74789;SDS011;63318;52.406;13.416;2022-10-15T08:57:40;9.20;;;4.20;;
74789;SDS011;63318;52.406;13.416;2022-10-15T09:00:14;7.90;;;4.30;;
74789;SDS011;63318;52.406;13.416;2022-10-15T09:02:47;7.10;;;4.80;;
74789;SDS011;63318;52.406;13.416;2022-10-15T09:05:26;11.90;;;5.30;;
74789;SDS011;63318;52.406;13.416;2022-10-15T09:08:01;12.80;;;6.50;;
74789;SDS011;63318;52.406;13.416;2022-10-15T09:10:37;10.10;;;5.10;;
74789;SDS011;63318;52.406;13.416;2022-10-15T09:13:10;7.50;;;5.00;;
74789;SDS011;63318;52.406;13.416;2022-10-15T09:15:45;9.10;;;5.40;;
74789;SDS011;63318;52.406;13.416;2022-10-15T09:18:18;10.30;;;4.40;;
74789;SDS011;63318;52.406;13.416;2022-10-15T09:20:49;8.10;;;4.90;;
74789;SDS011;63318;52.406;13.416;2022-10-15T09:23:19;7.30;;;4.50;;
74789;SDS011;63318;52.406;13.416;2022-10-15T09:25:50;9.00;;;4.60;;
74789;SDS011;63318;52.406;13.416;2022-10-15T09:28:24;9.30;;;4.50;;
74789;SDS011;63318;52.406;13.416;2022-10-15T09:30:58;7.40;;;4.30;;
74789;SDS011;63318;52.406;13.416;2022-10-15T09:33:32;10.20;;;4.10;;
74789;SDS011;63318;52.406;13.416;2022-10-15T09:36:09;10.80;;;3.80;;
74789;SDS011;63318;52.406;13.416;2022-10-15T09:38:55;8.80;;;4.80;;
74789;SDS011;63318;52.406;13.416;2022-10-15T09:41:32;9.00;;;4.30;;
74789;SDS011;63318;52.406;13.416;2022-10-15T09:44:13;6.70;;;4.10;;
74789;SDS011;63318;52.406;13.416;2022-10-15T09:46:45;6.40;;;4.10;;
74789;SDS011;63318;52.406;13.416;2022-10-15T09:49:15;6.60;;;4.50;;
74789;SDS011;63318;52.406;13.416;2022-10-15T09:51:48;9.20;;;5.80;;
74789;SDS011;63318;52.406;13.416;2022-10-15T09:54:28;7.20;;;4.30;;
74789;SDS011;63318;52.406;13.416;2022-10-15T09:57:08;7.50;;;4.50;;
74789;SDS011;63318;52.406;13.416;2022-10-15T09:59:45;6.90;;;4.50;;
74789;SDS011;63318;52.406;13.416;2022-10-15T10:02:20;7.20;;;4.80;;
74789;SDS011;63318;52.406;13.416;2022-10-15T10:04:49;6.60;;;3.90;;
74789;SDS011;63318;52.406;13.416;2022-10-15T10:10:06;6.60;;;3.90;;
74789;SDS011;63318;52.406;13.416;2022-10-15T10:12:50;5.10;;;3.30;;
74789;SDS011;63318;52.406;13.416;2022-10-15T10:15:27;7.00;;;3.90;;
74789;SDS011;63318;52.406;13.416;2022-10-15T10:17:59;6.00;;;3.80;;
74789;SDS011;63318;52.406;13.416;2022-10-15T10:20:30;5.40;;;3.40;;
74789;SDS011;63318;52.406;13.416;2022-10-15T10:23:00;5.90;;;3.60;;
74789;SDS011;63318;52.406;13.416;2022-10-15T10:25:45;6.60;;;3.70;;
74789;SDS011;63318;52.406;13.416;2022-10-15T10:28:16;5.80;;;3.70;;
74789;SDS011;63318;52.406;13.416;2022-10-15T10:30:51;6.50;;;3.90;;
74789;SDS011;63318;52.406;13.416;2022-10-15T10:33:26;5.40;;;3.70;;
74789;SDS011;63318;52.406;13.416;2022-10-15T10:35:56;7.70;;;3.90;;
74789;SDS011;63318;52.406;13.416;2022-10-15T10:38:27;6.20;;;4.20;;
74789;SDS011;63318;52.406;13.416;2022-10-15T10:40:58;5.80;;;3.30;;
74789;SDS011;63318;52.406;13.416;2022-10-15T10:43:28;5.60;;;3.50;;
74789;SDS011;63318;52.406;13.416;2022-10-15T10:45:58;5.90;;;3.60;;
74789;SDS011;63318;52.406;13.416;2022-10-15T10:48:32;6.20;;;3.70;;
74789;SDS011;63318;52.406;13.416;2022-10-15T10:51:07;6.50;;;3.50;;
74789;SDS011;63318;52.406;13.416;2022-10-15T10:53:39;5.50;;;3.20;;
74789;SDS011;63318;52.406;13.416;2022-10-15T10:56:19;8.50;;;3.50;;
74789;SDS011;63318;52.406;13.416;2022-10-15T10:58:52;6.80;;;3.10;;
74789;SDS011;63318;52.406;13.416;2022-10-15T11:01:23;5.00;;;2.70;;
74789;SDS011;63318;52.406;13.416;2022-10-15T11:03:52;5.30;;;3.10;;
74789;SDS011;63318;52.406;13.416;2022-10-15T11:06:26;5.20;;;3.00;;
74789;SDS011;63318;52.406;13.416;2022-10-15T11:09:04;4.80;;;3.00;;
74789;SDS011;63318;52.406;13.416;2022-10-15T11:11:40;6.80;;;3.10;;
74789;SDS011;63318;52.406;13.416;2022-10-15T11:14:21;5.40;;;3.30;;
74789;SDS011;63318;52.406;13.416;2022-10-15T11:16:59;6.80;;;3.10;;
74789;SDS011;63318;52.406;13.416;2022-10-15T11:19:38;5.20;;;3.00;;
74789;SDS011;63318;52.406;13.416;2022-10-15T11:22:17;5.10;;;2.90;;
74789;SDS011;63318;52.406;13.416;2022-10-15T11:24:56;5.70;;;3.20;;
74789;SDS011;63318;52.406;13.416;2022-10-15T11:27:41;5.10;;;3.30;;
74789;SDS011;63318;52.406;13.416;2022-10-15T11:30:22;4.60;;;2.90;;
74789;SDS011;63318;52.406;13.416;2022-10-15T11:32:59;4.90;;;3.10;;
74789;SDS011;63318;52.406;13.416;2022-10-15T11:35:41;5.80;;;3.00;;
74789;SDS011;63318;52.406;13.416;2022-10-15T11:38:16;4.90;;;2.80;;
74789;SDS011;63318;52.406;13.416;2022-10-15T11:40:53;4.60;;;2.50;;
74789;SDS011;63318;52.406;13.416;2022-10-15T11:43:36;5.50;;;2.90;;
74789;SDS011;63318;52.406;13.416;2022-10-15T11:48:52;4.80;;;2.60;;
74789;SDS011;63318;52.406;13.416;2022-10-15T11:51:30;4.40;;;2.40;;
74789;SDS011;63318;52.406;13.416;2022-10-15T11:54:12;5.20;;;2.80;;
74789;SDS011;63318;52.406;13.416;2022-10-15T11:56:49;5.60;;;2.60;;
74789;SDS011;63318;52.406;13.416;2022-10-15T11:59:28;5.50;;;2.50;;
74789;SDS011;63318;52.406;13.416;2022-10-15T12:02:02;5.20;;;2.50;;
74789;SDS011;63318;52.406;13.416;2022-10-15T12:04:37;4.10;;;2.80;;
74789;SDS011;63318;52.406;13.416;2022-10-15T12:07:10;5.30;;;2.60;;
74789;SDS011;63318;52.406;13.416;2022-10-15T12:09:42;4.20;;;2.60;;
74789;SDS011;63318;52.406;13.416;2022-10-15T12:12:18;5.80;;;2.50;;
74789;SDS011;63318;52.406;13.416;2022-10-15T12:15:01;4.90;;;2.40;;
74789;SDS011;63318;52.406;13.416;2022-10-15T12:17:41;5.90;;;2.60;;
74789;SDS011;63318;52.406;13.416;2022-10-15T12:20:14;4.70;;;2.80;;
74789;SDS011;63318;52.406;13.416;2022-10-15T12:22:54;4.00;;;2.20;;
74789;SDS011;63318;52.406;13.416;2022-10-15T12:25:40;4.00;;;2.40;;
74789;SDS011;63318;52.406;13.416;2022-10-15T12:28:16;4.40;;;2.60;;
74789;SDS011;63318;52.406;13.416;2022-10-15T12:30:53;4.20;;;2.50;;
74789;SDS011;63318;52.406;13.416;2022-10-15T12:33:25;4.70;;;2.70;;
74789;SDS011;63318;52.406;13.416;2022-10-15T12:35:58;6.20;;;3.10;;
74789;SDS011;63318;52.406;13.416;2022-10-15T12:38:28;3.70;;;1.90;;
74789;SDS011;63318;52.406;13.416;2022-10-15T12:40:59;5.40;;;2.20;;
74789;SDS011;63318;52.406;13.416;2022-10-15T12:43:30;5.60;;;2.70;;
74789;SDS011;63318;52.406;13.416;2022-10-15T12:46:01;6.50;;;2.20;;
74789;SDS011;63318;52.406;13.416;2022-10-15T12:48:32;3.80;;;1.80;;
74789;SDS011;63318;52.406;13.416;2022-10-15T12:57:02;4.30;;;2.00;;
74789;SDS011;63318;52.406;13.416;2022-10-15T13:02:57;4.50;;;1.90;;
74789;SDS011;63318;52.406;13.416;2022-10-15T13:05:39;5.60;;;2.00;;
74789;SDS011;63318;52.406;13.416;2022-10-15T13:08:11;3.90;;;1.90;;
74789;SDS011;63318;52.406;13.416;2022-10-15T13:10:44;3.70;;;1.80;;
74789;SDS011;63318;52.406;13.416;2022-10-15T13:13:17;3.30;;;1.50;;
74789;SDS011;63318;52.406;13.416;2022-10-15T13:15:51;3.30;;;1.60;;
74789;SDS011;63318;52.406;13.416;2022-10-15T13:18:22;3.90;;;1.60;;
74789;SDS011;63318;52.406;13.416;2022-10-15T13:20:51;4.70;;;1.40;;
74789;SDS011;63318;52.406;13.416;2022-10-15T13:23:22;4.60;;;1.80;;
74789;SDS011;63318;52.406;13.416;2022-10-15T13:25:52;3.70;;;1.70;;
74789;SDS011;63318;52.406;13.416;2022-10-15T13:28:34;4.10;;;1.50;;
74789;SDS011;63318;52.406;13.416;2022-10-15T13:31:05;3.60;;;1.50;;
74789;SDS011;63318;52.406;13.416;2022-10-15T13:33:41;4.60;;;1.90;;
74789;SDS011;63318;52.406;13.416;2022-10-15T13:36:15;3.00;;;1.50;;
74789;SDS011;63318;52.406;13.416;2022-10-15T13:38:52;4.70;;;1.70;;
74789;SDS011;63318;52.406;13.416;2022-10-15T13:41:24;3.60;;;1.60;;
74789;SDS011;63318;52.406;13.416;2022-10-15T13:43:54;2.90;;;1.40;;
74789;SDS011;63318;52.406;13.416;2022-10-15T13:46:23;3.20;;;1.60;;
74789;SDS011;63318;52.406;13.416;2022-10-15T13:48:56;3.40;;;1.60;;
74789;SDS011;63318;52.406;13.416;2022-10-15T13:51:29;4.10;;;1.60;;
74789;SDS011;63318;52.406;13.416;2022-10-15T13:54:06;4.30;;;1.50;;
74789;SDS011;63318;52.406;13.416;2022-10-15T13:56:37;3.50;;;1.50;;
74789;SDS011;63318;52.406;13.416;2022-10-15T13:59:13;4.90;;;1.50;;
74789;SDS011;63318;52.406;13.416;2022-10-15T14:01:45;3.60;;;1.70;;
74789;SDS011;63318;52.406;13.416;2022-10-15T14:04:17;3.40;;;1.40;;
74789;SDS011;63318;52.406;13.416;2022-10-15T14:06:53;3.90;;;1.70;;
74789;SDS011;63318;52.406;13.416;2022-10-15T14:09:24;3.40;;;1.40;;
74789;SDS011;63318;52.406;13.416;2022-10-15T14:11:56;6.30;;;1.50;;
74789;SDS011;63318;52.406;13.416;2022-10-15T14:14:29;5.50;;;2.30;;
74789;SDS011;63318;52.406;13.416;2022-10-15T14:16:59;4.50;;;2.10;;
74789;SDS011;63318;52.406;13.416;2022-10-15T14:19:29;5.60;;;2.40;;
74789;SDS011;63318;52.406;13.416;2022-10-15T14:22:00;4.00;;;2.40;;
74789;SDS011;63318;52.406;13.416;2022-10-15T14:24:30;4.20;;;2.30;;
74789;SDS011;63318;52.406;13.416;2022-10-15T14:27:02;4.60;;;1.70;;
74789;SDS011;63318;52.406;13.416;2022-10-15T14:29:36;3.50;;;1.70;;
74789;SDS011;63318;52.406;13.416;2022-10-15T14:32:20;3.50;;;1.80;;
74789;SDS011;63318;52.406;13.416;2022-10-15T14:34:51;6.10;;;1.80;;
74789;SDS011;63318;52.406;13.416;2022-10-15T14:37:30;4.30;;;1.50;;
74789;SDS011;63318;52.406;13.416;2022-10-15T14:40:07;3.40;;;1.50;;
74789;SDS011;63318;52.406;13.416;2022-10-15T14:42:42;3.00;;;1.50;;
74789;SDS011;63318;52.406;13.416;2022-10-15T14:45:12;3.60;;;1.40;;
74789;SDS011;63318;52.406;13.416;2022-10-15T14:47:45;3.20;;;1.60;;
74789;SDS011;63318;52.406;13.416;2022-10-15T14:50:16;5.70;;;1.50;;
74789;SDS011;63318;52.406;13.416;2022-10-15T14:52:45;5.80;;;1.40;;
74789;SDS011;63318;52.406;13.416;2022-10-15T14:55:18;2.60;;;1.00;;
74789;SDS011;63318;52.406;13.416;2022-10-15T14:57:55;3.50;;;1.40;;
74789;SDS011;63318;52.406;13.416;2022-10-15T15:00:24;3.30;;;1.40;;
74789;SDS011;63318;52.406;13.416;2022-10-15T15:02:57;5.00;;;1.10;;
74789;SDS011;63318;52.406;13.416;2022-10-15T15:05:28;3.00;;;1.20;;
74789;SDS011;63318;52.406;13.416;2022-10-15T15:07:56;2.70;;;1.10;;
74789;SDS011;63318;52.406;13.416;2022-10-15T15:10:25;2.50;;;1.10;;
74789;SDS011;63318;52.406;13.416;2022-10-15T15:12:54;2.90;;;1.30;;
74789;SDS011;63318;52.406;13.416;2022-10-15T15:15:23;3.00;;;1.30;;